Terminal Aerodrome Forecast
Issued by NWS

Home | Current Version | Previous Version | Text Only | Print | Product List | Glossary On
Versions: 1 2 3 4 5 6 7 8 9 10 11 12 13
163
FTUS46 KMTR 172020 AAA
TAFSJC
TAF AMD
KSJC 172020Z 1720/1818 30005KT 5SM HZ BKN100
     FM172100 30008KT P6SM SCT035 BKN200
     FM180300 30005KT P6SM SCT250
     FM180900 VRB03KT P6SM SCT250=

USA.gov is the U.S. government's official web portal to all federal, state and local government web resources and services.